createdAt,value
2023-05-11T00:00:37.969Z,99485.34
2023-05-11T00:01:43.175Z,99488.00
2023-05-11T00:02:47.741Z,99487.41
2023-05-11T00:03:52.088Z,99483.13
2023-05-11T00:04:56.111Z,99486.31
2023-05-11T00:06:01.121Z,99484.75
2023-05-11T00:07:05.562Z,99483.25
2023-05-11T00:08:10.145Z,99487.00
2023-05-11T00:09:14.718Z,99486.03
2023-05-11T00:10:18.950Z,99492.94
2023-05-11T00:11:23.913Z,99487.00
2023-05-11T00:12:27.997Z,99493.28
2023-05-11T00:13:32.485Z,99485.75
2023-05-11T00:14:36.545Z,99487.88
2023-05-11T00:15:40.609Z,99485.88
2023-05-11T00:16:44.472Z,99481.50
2023-05-11T00:17:49.025Z,99490.34
2023-05-11T00:18:53.013Z,99480.88
2023-05-11T00:19:56.949Z,99483.84
2023-05-11T00:21:00.529Z,99481.31
2023-05-11T00:22:04.559Z,99484.94
2023-05-11T00:23:08.762Z,99486.22
2023-05-11T00:24:12.361Z,99480.06
2023-05-11T00:25:16.645Z,99485.16
2023-05-11T00:26:21.337Z,99481.25
2023-05-11T00:27:25.819Z,99483.16
2023-05-11T00:28:29.962Z,99484.34
2023-05-11T00:29:33.758Z,99481.56
2023-05-11T00:30:39.697Z,99480.72
2023-05-11T00:31:48.415Z,99476.00
2023-05-11T00:32:52.457Z,99480.59
2023-05-11T00:33:56.985Z,99476.25
2023-05-11T00:35:01.088Z,99477.41
2023-05-11T00:36:05.941Z,99481.91
2023-05-11T00:37:10.460Z,99477.34
2023-05-11T00:38:14.685Z,99487.97
2023-05-11T00:39:18.764Z,99495.84
2023-05-11T00:40:22.752Z,99483.81
2023-05-11T00:41:26.509Z,99478.63
2023-05-11T00:42:30.258Z,99490.09
2023-05-11T00:43:34.187Z,99479.59
2023-05-11T00:44:38.390Z,99479.91
2023-05-11T00:45:42.220Z,99486.91
2023-05-11T00:46:46.439Z,99483.41
2023-05-11T00:47:50.957Z,99483.53
2023-05-11T00:48:55.783Z,99485.34
2023-05-11T00:49:59.852Z,99479.91
2023-05-11T00:51:05.932Z,99481.81
2023-05-11T00:52:10.193Z,99484.50
2023-05-11T00:53:14.619Z,99478.44
2023-05-11T00:54:19.249Z,99477.47
2023-05-11T00:55:24.027Z,99481.19
2023-05-11T00:56:28.302Z,99481.28
2023-05-11T00:57:33.432Z,99478.63
2023-05-11T00:58:38.480Z,99479.06
2023-05-11T00:59:43.307Z,99479.31
2023-05-11T01:00:50.459Z,99479.31
2023-05-11T01:01:54.578Z,99472.41
2023-05-11T01:03:01.919Z,99478.34
2023-05-11T01:04:07.177Z,99476.53
2023-05-11T01:05:11.265Z,99476.75
2023-05-11T01:07:05.136Z,99474.41
2023-05-11T01:08:40.492Z,99472.06
2023-05-11T01:10:14.233Z,99480.16
2023-05-11T01:11:54.115Z,99476.88
2023-05-11T01:13:24.997Z,99475.06
2023-05-11T01:15:07.084Z,99474.09
2023-05-11T01:16:20.102Z,99481.50
2023-05-11T01:18:02.190Z,99483.22
2023-05-11T01:19:43.575Z,99483.56
2023-05-11T01:20:53.459Z,99486.31
2023-05-11T01:21:58.223Z,99484.50
2023-05-11T01:23:32.238Z,99478.44
2023-05-11T01:25:01.078Z,99491.09
2023-05-11T01:26:21.860Z,99484.81
2023-05-11T01:28:09.838Z,99489.59
2023-05-11T01:29:38.104Z,99488.97
2023-05-11T01:31:13.085Z,99479.63
2023-05-11T01:32:27.938Z,99484.19
2023-05-11T01:33:38.389Z,99481.72
2023-05-11T01:34:44.865Z,99482.56
2023-05-11T01:35:53.768Z,99482.50
2023-05-11T01:37:11.513Z,99477.19
2023-05-11T01:38:21.757Z,99484.63
2023-05-11T01:39:38.564Z,99484.91
2023-05-11T05:38:43.933Z,99527.00
2023-05-11T05:39:48.642Z,99531.13
2023-05-11T05:40:52.896Z,99527.28
2023-05-11T05:41:57.369Z,99523.34
2023-05-11T05:43:04.697Z,99527.28
2023-05-11T05:44:08.614Z,99525.19
2023-05-11T05:45:14.766Z,99518.81
2023-05-11T05:46:19.038Z,99526.56
2023-05-11T05:47:23.122Z,99523.44
2023-05-11T05:48:27.149Z,99525.00
2023-05-11T05:49:30.996Z,99524.25
2023-05-11T05:50:34.859Z,99525.47
2023-05-11T05:51:38.634Z,99525.78
2023-05-11T05:52:42.590Z,99521.28
2023-05-11T05:53:46.907Z,99519.59
2023-05-11T05:54:50.696Z,99521.91
2023-05-11T05:55:54.895Z,99519.16
2023-05-11T05:56:58.768Z,99524.03
2023-05-11T05:58:02.383Z,99520.44
2023-05-11T05:59:06.590Z,99524.38
2023-05-11T06:00:12.154Z,99520.53
2023-05-11T06:01:16.335Z,99521.63
2023-05-11T06:02:21.602Z,99530.50
2023-05-11T06:03:28.429Z,99521.69
2023-05-11T06:04:33.235Z,99522.25
2023-05-11T06:05:37.786Z,99528.16
2023-05-11T06:06:41.976Z,99527.66
2023-05-11T06:07:54.318Z,99527.97
2023-05-11T06:09:02.101Z,99517.22
2023-05-11T06:10:07.036Z,99525.44
2023-05-11T06:11:11.396Z,99527.38
2023-05-11T06:12:16.843Z,99526.44
2023-05-11T06:13:21.772Z,99519.38
2023-05-11T06:14:26.656Z,99527.81
2023-05-11T06:15:30.472Z,99527.03
2023-05-11T06:16:34.600Z,99530.34
2023-05-11T06:17:38.548Z,99521.47
2023-05-11T06:18:42.756Z,99521.06
2023-05-11T06:19:47.457Z,99527.56
2023-05-11T06:20:51.794Z,99525.53
2023-05-11T06:21:55.849Z,99530.22
2023-05-11T06:23:00.134Z,99531.28
2023-05-11T06:24:04.751Z,99531.47
2023-05-11T06:25:08.783Z,99531.88
2023-05-11T06:26:14.838Z,99534.03
2023-05-11T06:27:19.239Z,99531.56
2023-05-11T06:28:25.158Z,99534.63
2023-05-11T06:29:29.260Z,99525.25
2023-05-11T06:30:33.348Z,99529.66
2023-05-11T06:31:37.548Z,99520.97
2023-05-11T06:32:42.089Z,99519.91
2023-05-11T06:33:46.158Z,99523.72
2023-05-11T06:34:49.909Z,99522.19
2023-05-11T06:35:53.755Z,99526.63
2023-05-11T06:37:00.687Z,99528.16
2023-05-11T06:38:05.080Z,99525.13
2023-05-11T06:39:08.870Z,99522.06
2023-05-11T06:40:13.842Z,99519.81
2023-05-11T06:41:18.418Z,99515.28
2023-05-11T06:42:25.762Z,99522.47
2023-05-11T06:43:30.324Z,99521.53
2023-05-11T06:44:34.632Z,99518.97
2023-05-11T06:45:38.762Z,99518.22
2023-05-11T06:46:42.558Z,99516.50
2023-05-11T06:47:46.334Z,99521.44
2023-05-11T06:48:50.817Z,99521.69
2023-05-11T06:49:55.736Z,99518.13
2023-05-11T06:50:59.476Z,99513.97
2023-05-11T06:52:03.596Z,99518.19
2023-05-11T06:53:08.431Z,99515.41
2023-05-11T06:54:12.501Z,99512.34
2023-05-11T06:55:16.611Z,99516.84
2023-05-11T06:56:23.329Z,99516.66
2023-05-11T06:57:27.463Z,99515.16
2023-05-11T06:58:31.582Z,99520.00
2023-05-11T06:59:35.213Z,99513.88
2023-05-11T07:00:39.685Z,99511.19
2023-05-11T07:01:44.040Z,99509.38
2023-05-11T07:02:50.430Z,99507.91
2023-05-11T07:03:57.888Z,99510.16
2023-05-11T07:05:02.474Z,99503.97
2023-05-11T07:06:06.814Z,99512.66
2023-05-11T07:07:12.587Z,99510.88
2023-05-11T07:08:16.625Z,99515.06
2023-05-11T07:09:21.413Z,99503.50
2023-05-11T07:10:26.919Z,99503.25
2023-05-11T07:11:33.893Z,99502.97
2023-05-11T07:12:38.088Z,99503.34
2023-05-11T07:13:42.701Z,99499.66
2023-05-11T07:14:46.390Z,99493.78
2023-05-11T07:15:50.444Z,99499.94
2023-05-11T07:16:54.701Z,99495.97
2023-05-11T07:17:58.505Z,99503.22
2023-05-11T07:19:03.118Z,99495.91
2023-05-11T07:20:08.084Z,99496.22
2023-05-11T07:21:11.942Z,99500.72
2023-05-11T07:22:15.873Z,99495.75
2023-05-11T07:23:19.638Z,99493.66
2023-05-11T07:24:23.682Z,99491.13
2023-05-11T07:25:28.829Z,99492.59
2023-05-11T07:26:33.420Z,99495.09
2023-05-11T07:27:37.411Z,99497.63
2023-05-11T07:28:41.330Z,99503.50
2023-05-11T07:29:45.525Z,99502.25
2023-05-11T07:30:49.410Z,99503.03
2023-05-11T07:31:53.469Z,99490.94
2023-05-11T07:32:57.549Z,99495.25
2023-05-11T07:34:01.739Z,99492.56
2023-05-11T07:35:06.248Z,99494.47
2023-05-11T07:36:10.186Z,99496.22
2023-05-11T07:37:14.312Z,99496.34
2023-05-11T07:38:18.709Z,99492.59
2023-05-11T07:39:22.647Z,99495.25
2023-05-11T07:40:26.852Z,99498.47
2023-05-11T07:41:31.018Z,99495.06
2023-05-11T07:42:35.564Z,99487.53
2023-05-11T07:43:39.986Z,99483.38
2023-05-11T07:44:43.849Z,99494.56
2023-05-11T07:45:48.094Z,99497.78
2023-05-11T07:46:52.679Z,99490.22
2023-05-11T07:47:56.913Z,99483.72
2023-05-11T07:49:14.573Z,99488.72
2023-05-11T07:50:19.739Z,99489.50
2023-05-11T07:51:24.515Z,99490.44
2023-05-11T07:52:28.342Z,99486.75
2023-05-11T07:53:33.597Z,99488.97
2023-05-11T07:54:37.553Z,99487.66
2023-05-11T07:55:41.744Z,99482.34
2023-05-11T07:56:45.726Z,99487.22
2023-05-11T07:57:49.849Z,99490.72
2023-05-11T07:58:54.188Z,99489.88
2023-05-11T07:59:58.194Z,99482.72
2023-05-11T08:01:02.147Z,99486.34
2023-05-11T08:02:12.241Z,99481.00
2023-05-11T08:03:17.244Z,99484.25
2023-05-11T08:04:23.135Z,99484.75
2023-05-11T08:05:27.330Z,99480.66
2023-05-11T08:06:31.660Z,99479.97
2023-05-11T08:07:35.826Z,99480.47
2023-05-11T08:08:40.126Z,99478.06
2023-05-11T08:09:44.680Z,99475.81
2023-05-11T08:10:49.011Z,99482.75
2023-05-11T08:11:54.206Z,99478.56
2023-05-11T08:13:04.073Z,99481.31
2023-05-11T08:14:08.112Z,99477.13
2023-05-11T08:15:12.549Z,99474.72
2023-05-11T08:16:17.220Z,99476.59
2023-05-11T08:17:21.806Z,99475.97
2023-05-11T08:18:26.018Z,99487.78
2023-05-11T08:19:31.073Z,99485.25
2023-05-11T08:20:35.177Z,99481.69
2023-05-11T08:21:39.331Z,99477.97
2023-05-11T08:22:44.767Z,99476.91
2023-05-11T08:23:49.014Z,99475.09
2023-05-11T08:24:52.997Z,99472.88
2023-05-11T08:25:56.996Z,99458.59
2023-05-11T08:27:00.774Z,99471.28
2023-05-11T08:28:05.162Z,99472.63
2023-05-11T08:29:11.338Z,99477.13
2023-05-11T08:30:16.278Z,99470.44
2023-05-11T08:31:20.221Z,99471.34
2023-05-11T08:32:24.570Z,99465.63
2023-05-11T08:34:39.229Z,99470.63
2023-05-11T08:35:43.301Z,99465.41
2023-05-11T08:36:47.489Z,99464.69
2023-05-11T08:37:51.740Z,99470.03
2023-05-11T08:38:58.999Z,99473.13
2023-05-11T08:40:04.227Z,99465.09
2023-05-11T08:41:08.821Z,99470.28
2023-05-11T08:42:20.926Z,99456.06
2023-05-11T08:43:28.978Z,99464.38
2023-05-11T08:44:36.222Z,99457.06
2023-05-11T08:45:47.991Z,99462.78
2023-05-11T08:47:11.145Z,99458.25
2023-05-11T08:48:21.318Z,99467.22
2023-05-11T08:49:25.658Z,99465.66
2023-05-11T08:50:29.931Z,99460.06
2023-05-11T08:51:34.116Z,99463.25
2023-05-11T08:52:38.591Z,99458.00
2023-05-11T08:53:43.147Z,99459.84
2023-05-11T08:54:49.248Z,99458.75
2023-05-11T08:55:58.115Z,99449.25
2023-05-11T08:57:03.319Z,99453.44
2023-05-11T08:58:08.423Z,99454.63
2023-05-11T08:59:15.506Z,99450.13
2023-05-11T09:00:21.410Z,99459.66
2023-05-11T09:01:29.929Z,99452.91
2023-05-11T09:02:36.074Z,99447.03
2023-05-11T09:03:41.684Z,99446.00
2023-05-11T09:04:49.179Z,99451.78
2023-05-11T09:05:54.264Z,99452.94
2023-05-11T09:06:59.285Z,99449.44
2023-05-11T09:08:09.022Z,99449.00
2023-05-11T09:09:19.295Z,99453.88
2023-05-11T09:10:23.419Z,99448.72
2023-05-11T09:11:29.604Z,99457.59
2023-05-11T09:12:33.915Z,99451.31
2023-05-11T09:13:38.233Z,99445.44
2023-05-11T09:14:42.126Z,99445.66
2023-05-11T09:15:45.805Z,99450.88
2023-05-11T09:16:49.919Z,99446.63
2023-05-11T09:17:54.662Z,99439.50
2023-05-11T09:19:02.559Z,99447.91
2023-05-11T09:20:09.585Z,99447.53
2023-05-11T09:21:13.671Z,99449.09
2023-05-11T09:22:18.000Z,99447.38
2023-05-11T09:23:27.339Z,99448.97
2023-05-11T09:24:31.795Z,99444.56
2023-05-11T09:25:36.406Z,99447.03
2023-05-11T09:26:41.797Z,99446.63
2023-05-11T09:27:47.763Z,99451.22
2023-05-11T09:29:03.898Z,99448.59
2023-05-11T09:30:23.885Z,99448.53
2023-05-11T09:31:43.152Z,99442.31
2023-05-11T09:32:55.627Z,99447.59
2023-05-11T09:34:17.582Z,99449.88
2023-05-11T09:35:31.123Z,99448.94
2023-05-11T09:36:35.245Z,99444.53
2023-05-11T09:37:39.333Z,99454.72
2023-05-11T09:38:43.547Z,99447.66
2023-05-11T09:40:25.042Z,99445.44
2023-05-11T09:41:21.104Z,99444.59
2023-05-11T09:42:25.430Z,99441.19
2023-05-11T09:43:31.821Z,99444.03
2023-05-11T09:44:36.747Z,99440.69
2023-05-11T09:45:46.804Z,99447.97
2023-05-11T09:46:51.263Z,99447.16
2023-05-11T09:47:56.021Z,99442.25
2023-05-11T09:49:01.436Z,99441.78
2023-05-11T09:50:18.677Z,99439.28
2023-05-11T09:51:41.952Z,99441.66
2023-05-11T09:52:53.150Z,99442.50
2023-05-11T09:53:57.560Z,99443.41
2023-05-11T09:55:11.209Z,99443.09
2023-05-11T09:56:15.947Z,99427.94
2023-05-11T09:57:31.777Z,99430.69
2023-05-11T09:58:57.719Z,99434.28
2023-05-11T10:00:01.925Z,99423.19
2023-05-11T10:01:05.981Z,99423.34
2023-05-11T10:02:27.564Z,99421.34
2023-05-11T10:03:33.661Z,99419.66
2023-05-11T10:04:38.164Z,99416.97
2023-05-11T10:05:42.223Z,99417.31
2023-05-11T10:06:53.550Z,99416.47
2023-05-11T10:08:04.327Z,99409.88
2023-05-11T10:09:12.812Z,99410.25
2023-05-11T10:10:18.180Z,99404.38
2023-05-11T10:11:26.046Z,99403.19
2023-05-11T10:12:38.669Z,99404.91
2023-05-11T10:13:46.121Z,99406.94
2023-05-11T10:15:01.265Z,99404.41
2023-05-11T10:16:07.399Z,99403.22
2023-05-11T10:17:13.409Z,99410.63
2023-05-11T10:18:20.110Z,99409.78
2023-05-11T10:19:25.383Z,99407.59
2023-05-11T10:20:29.280Z,99407.94
2023-05-11T10:21:35.827Z,99398.66
2023-05-11T10:22:40.865Z,99398.13
2023-05-11T10:23:45.435Z,99391.41
2023-05-11T10:24:50.779Z,99399.50
2023-05-11T10:25:55.368Z,99398.13
2023-05-11T10:27:01.904Z,99402.53
2023-05-11T10:28:06.457Z,99387.97
2023-05-11T10:29:11.640Z,99394.06
2023-05-11T10:30:18.099Z,99391.00
2023-05-11T10:31:24.461Z,99403.84
2023-05-11T10:32:30.033Z,99399.13
2023-05-11T10:33:35.298Z,99398.09
2023-05-11T10:34:42.954Z,99399.94
2023-05-11T10:35:47.389Z,99391.19
2023-05-11T10:36:53.344Z,99397.44
2023-05-11T10:37:58.747Z,99385.59
2023-05-11T10:39:02.665Z,99394.72
2023-05-11T10:40:08.176Z,99391.66
2023-05-11T10:42:02.211Z,99388.81
2023-05-11T10:43:36.905Z,99379.03
2023-05-11T10:44:52.850Z,99385.59
2023-05-11T10:45:56.570Z,99393.88
2023-05-11T10:47:24.589Z,99383.94
2023-05-11T10:49:11.682Z,99386.00
2023-05-11T10:50:57.153Z,99383.44
2023-05-11T10:52:43.308Z,99386.00
2023-05-11T10:54:10.974Z,99379.88
2023-05-11T10:55:45.454Z,99367.19
2023-05-11T10:57:23.335Z,99371.72
2023-05-11T10:58:41.828Z,99368.13
2023-05-11T11:00:35.645Z,99371.69
2023-05-11T11:01:44.761Z,99374.91
2023-05-11T11:02:49.307Z,99367.63
2023-05-11T11:04:05.328Z,99365.13
2023-05-11T11:05:14.479Z,99362.78
2023-05-11T11:06:29.488Z,99367.72
2023-05-11T11:08:00.514Z,99363.31
2023-05-11T11:09:16.650Z,99362.97
2023-05-11T11:10:46.460Z,99367.75
2023-05-11T11:11:51.851Z,99361.84
2023-05-11T11:13:17.486Z,99351.22
2023-05-11T11:14:21.255Z,99357.28
2023-05-11T11:15:25.014Z,99351.03
2023-05-11T11:16:30.571Z,99360.16
2023-05-11T11:17:36.421Z,99362.84
2023-05-11T11:18:42.992Z,99355.59
2023-05-11T11:19:46.954Z,99355.41
2023-05-11T11:20:53.617Z,99350.84
2023-05-11T11:22:02.445Z,99351.13
2023-05-11T11:23:06.378Z,99351.81
2023-05-11T11:24:38.691Z,99352.81
2023-05-11T11:25:55.200Z,99358.69
2023-05-11T11:26:59.349Z,99369.63
2023-05-11T11:28:03.094Z,99351.91
2023-05-11T11:29:11.807Z,99359.50
2023-05-11T11:30:31.055Z,99359.72
2023-05-11T11:31:36.676Z,99351.81
2023-05-11T11:32:40.871Z,99365.28
2023-05-11T11:33:44.691Z,99361.31
2023-05-11T11:34:50.169Z,99363.00
2023-05-11T11:35:54.100Z,99361.97
2023-05-11T11:37:02.448Z,99362.84
2023-05-11T11:38:09.533Z,99356.63
2023-05-11T11:39:14.474Z,99356.94
2023-05-11T11:40:50.759Z,99363.66
2023-05-11T11:42:20.911Z,99351.16
2023-05-11T11:43:44.246Z,99352.75
2023-05-11T11:44:48.611Z,99353.22
2023-05-11T11:46:04.955Z,99345.44
2023-05-11T11:47:23.500Z,99354.84
2023-05-11T11:48:39.261Z,99338.72
2023-05-11T11:49:49.594Z,99359.34
2023-05-11T11:51:05.019Z,99354.34
2023-05-11T11:52:14.429Z,99352.09
2023-05-11T11:53:37.873Z,99352.28
2023-05-11T11:54:45.878Z,99358.34
2023-05-11T11:55:52.131Z,99349.41
2023-05-11T11:56:56.087Z,99357.16
2023-05-11T11:58:00.183Z,99354.13
2023-05-11T11:59:10.364Z,99355.28
2023-05-11T12:00:22.288Z,99340.44
2023-05-11T12:01:39.700Z,99347.47
2023-05-11T12:02:46.297Z,99358.66
2023-05-11T12:04:06.058Z,99354.28
2023-05-11T12:05:23.399Z,99350.88
2023-05-11T12:06:41.455Z,99356.97
2023-05-11T12:08:07.986Z,99347.03
2023-05-11T12:09:18.501Z,99342.66
2023-05-11T12:10:24.087Z,99342.19
2023-05-11T12:11:30.579Z,99344.03
2023-05-11T12:12:37.955Z,99339.84
2023-05-11T12:13:44.217Z,99346.56
2023-05-11T12:14:51.796Z,99346.22
2023-05-11T12:16:18.933Z,99351.25
2023-05-11T12:17:30.276Z,99333.69
2023-05-11T12:18:34.464Z,99345.97
2023-05-11T12:19:38.404Z,99332.69
2023-05-11T12:20:42.329Z,99330.84
2023-05-11T12:21:47.137Z,99338.25
2023-05-11T12:22:52.308Z,99333.50
2023-05-11T12:24:01.972Z,99335.84
2023-05-11T12:25:08.483Z,99338.53
2023-05-11T12:26:12.313Z,99339.38
2023-05-11T12:27:19.854Z,99337.69
2023-05-11T12:28:23.950Z,99333.97
2023-05-11T12:29:27.979Z,99330.94
2023-05-11T12:30:34.720Z,99325.84
2023-05-11T12:31:41.030Z,99325.00
2023-05-11T12:32:45.120Z,99324.00
2023-05-11T12:33:51.968Z,99326.19
2023-05-11T12:35:04.655Z,99322.16
2023-05-11T12:36:09.760Z,99327.38
2023-05-11T12:37:16.179Z,99320.94
2023-05-11T12:38:20.893Z,99323.81
2023-05-11T12:39:27.955Z,99310.97
2023-05-11T12:40:32.573Z,99314.19
2023-05-11T12:41:36.509Z,99313.53
2023-05-11T12:42:57.937Z,99324.66
2023-05-11T12:44:02.219Z,99314.03
2023-05-11T12:45:07.404Z,99323.81
2023-05-11T12:46:16.207Z,99310.13
2023-05-11T12:47:20.647Z,99316.75
2023-05-11T12:48:25.001Z,99310.31
2023-05-11T12:49:29.684Z,99318.25
2023-05-11T12:50:47.667Z,99303.88
2023-05-11T12:51:53.257Z,99304.22
2023-05-11T12:53:17.711Z,99318.41
2023-05-11T12:54:38.449Z,99332.44
2023-05-11T12:55:42.965Z,99311.34
2023-05-11T12:56:49.786Z,99311.34
2023-05-11T12:58:07.050Z,99310.50
2023-05-11T12:59:37.802Z,99315.75
2023-05-11T13:00:57.024Z,99308.13
2023-05-11T13:02:21.142Z,99299.16
2023-05-11T13:03:32.711Z,99310.59
2023-05-11T13:04:39.117Z,99305.53
2023-05-11T13:05:46.805Z,99300.31
2023-05-11T13:06:51.117Z,99300.63
2023-05-11T13:08:04.400Z,99297.22
2023-05-11T13:09:10.298Z,99295.56
2023-05-11T13:10:15.224Z,99298.63
2023-05-11T13:11:26.840Z,99284.09
2023-05-11T13:12:32.449Z,99294.06
2023-05-11T13:13:36.488Z,99289.13
2023-05-11T13:14:40.718Z,99299.78
2023-05-11T13:15:52.428Z,99298.81
2023-05-11T13:16:56.743Z,99288.66
2023-05-11T13:18:03.207Z,99304.31
2023-05-11T13:19:10.795Z,99292.53
2023-05-11T13:20:20.280Z,99294.25
2023-05-11T13:21:24.055Z,99290.19
2023-05-11T13:22:27.981Z,99282.75
2023-05-11T13:23:31.951Z,99284.94
2023-05-11T13:24:35.904Z,99287.31
2023-05-11T13:25:48.964Z,99288.69
2023-05-11T13:26:54.499Z,99282.94
2023-05-11T13:27:58.306Z,99287.69
2023-05-11T13:29:10.815Z,99281.06
2023-05-11T13:30:16.352Z,99289.00
2023-05-11T13:31:21.223Z,99278.19
2023-05-11T13:32:25.517Z,99274.31
2023-05-11T13:33:29.359Z,99273.16
2023-05-11T13:34:33.424Z,99264.38
2023-05-11T13:35:41.974Z,99290.84
2023-05-11T13:36:46.962Z,99282.59
2023-05-11T13:37:51.060Z,99280.72
2023-05-11T13:38:55.042Z,99287.69
2023-05-11T13:40:02.240Z,99278.59
2023-05-11T13:41:07.379Z,99278.78
2023-05-11T13:42:11.768Z,99278.13
2023-05-11T13:43:16.015Z,99274.91
2023-05-11T13:44:20.118Z,99281.81
2023-05-11T13:45:24.543Z,99280.78
2023-05-11T13:46:29.186Z,99280.97
2023-05-11T13:47:33.194Z,99278.81
2023-05-11T13:48:37.063Z,99281.69
2023-05-11T13:49:40.800Z,99272.72
2023-05-11T13:50:45.358Z,99276.44
2023-05-11T13:51:49.120Z,99279.81
2023-05-11T13:52:54.216Z,99281.34
2023-05-11T13:53:59.516Z,99276.59
2023-05-11T13:55:04.536Z,99278.94
2023-05-11T13:56:08.557Z,99274.56
2023-05-11T13:57:13.400Z,99272.34
2023-05-11T13:58:20.907Z,99276.88
2023-05-11T13:59:25.496Z,99274.34
2023-05-11T14:00:29.272Z,99268.41
2023-05-11T14:01:33.446Z,99267.03
2023-05-11T14:02:37.755Z,99276.63
2023-05-11T14:03:41.873Z,99292.38
2023-05-11T14:04:46.252Z,99277.34
2023-05-11T14:05:51.572Z,99271.94
2023-05-11T14:06:55.733Z,99269.94
2023-05-11T14:08:00.122Z,99273.59
2023-05-11T14:09:04.216Z,99264.28
2023-05-11T14:10:09.667Z,99264.94
2023-05-11T14:11:13.874Z,99263.91
2023-05-11T14:12:19.024Z,99260.56
2023-05-11T14:13:24.134Z,99262.59
2023-05-11T14:14:27.884Z,99269.50
2023-05-11T14:15:31.569Z,99264.59
2023-05-11T14:16:37.060Z,99261.22
2023-05-11T14:17:43.291Z,99262.91
2023-05-11T14:18:48.665Z,99253.94
2023-05-11T14:19:52.398Z,99261.03
2023-05-11T14:20:57.110Z,99264.56
2023-05-11T14:22:01.296Z,99261.88
2023-05-11T14:23:05.039Z,99258.81
2023-05-11T14:24:12.456Z,99249.69
2023-05-11T14:25:17.482Z,99260.00
2023-05-11T14:26:22.386Z,99255.44
2023-05-11T14:27:26.653Z,99257.97
2023-05-11T14:28:31.704Z,99262.56
2023-05-11T14:29:38.656Z,99256.13
2023-05-11T14:30:44.989Z,99260.00
2023-05-11T14:31:50.700Z,99256.47
2023-05-11T14:32:55.120Z,99255.06
2023-05-11T14:33:59.151Z,99257.06
2023-05-11T14:35:03.534Z,99256.88
2023-05-11T14:36:09.097Z,99256.03
2023-05-11T14:37:13.641Z,99258.22
2023-05-11T14:38:17.873Z,99257.84
2023-05-11T14:39:21.875Z,99241.88
2023-05-11T14:40:25.760Z,99254.00
2023-05-11T14:41:30.485Z,99250.81
2023-05-11T14:42:34.617Z,99246.06
2023-05-11T14:43:41.218Z,99254.84
2023-05-11T14:44:46.564Z,99242.06
2023-05-11T14:45:50.711Z,99244.63
2023-05-11T14:46:54.815Z,99241.78
2023-05-11T14:47:59.444Z,99254.97
2023-05-11T14:49:03.200Z,99246.41
2023-05-11T14:50:08.077Z,99249.44
2023-05-11T14:51:12.181Z,99262.78
2023-05-11T14:52:17.065Z,99235.31
2023-05-11T14:53:21.004Z,99243.94
2023-05-11T14:54:25.234Z,99252.25
2023-05-11T14:55:29.492Z,99258.81
2023-05-11T14:56:33.920Z,99254.25
2023-05-11T14:57:38.825Z,99260.97
2023-05-11T14:58:43.839Z,99254.56
2023-05-11T14:59:59.092Z,99246.31
2023-05-11T15:01:05.599Z,99253.25
2023-05-11T15:02:10.133Z,99260.16
2023-05-11T15:03:14.102Z,99247.53
2023-05-11T15:04:19.988Z,99257.50
2023-05-11T15:05:24.371Z,99255.66
2023-05-11T15:06:28.262Z,99259.19
2023-05-11T15:07:32.317Z,99254.28
2023-05-11T15:08:36.921Z,99257.31
2023-05-11T15:09:41.726Z,99260.16
2023-05-11T15:10:48.614Z,99249.34
2023-05-11T15:11:52.793Z,99251.59
2023-05-11T15:12:56.673Z,99257.66
2023-05-11T15:14:01.169Z,99242.97
2023-05-11T15:15:05.894Z,99261.38
2023-05-11T15:16:10.081Z,99260.03
2023-05-11T15:17:13.814Z,99250.25
2023-05-11T15:18:17.719Z,99252.94
2023-05-11T15:19:21.579Z,99267.13
2023-05-11T15:20:25.951Z,99250.09
2023-05-11T15:21:29.635Z,99255.13
2023-05-11T15:22:33.532Z,99257.31
2023-05-11T15:23:37.437Z,99251.09
2023-05-11T15:24:41.331Z,99268.31
2023-05-11T15:25:45.534Z,99252.47
2023-05-11T15:26:49.875Z,99252.09
2023-05-11T15:27:54.311Z,99258.72
2023-05-11T15:28:58.153Z,99247.53
2023-05-11T15:30:04.877Z,99256.31
2023-05-11T15:31:10.313Z,99250.56
2023-05-11T15:32:15.579Z,99258.16
2023-05-11T15:33:20.162Z,99260.16
2023-05-11T15:34:23.924Z,99261.88
2023-05-11T15:35:28.341Z,99249.13
2023-05-11T15:36:32.395Z,99258.19
2023-05-11T15:37:36.615Z,99253.16
2023-05-11T15:38:42.755Z,99254.00
2023-05-11T15:39:46.793Z,99253.53
2023-05-11T15:40:51.210Z,99252.56
2023-05-11T15:41:55.757Z,99255.06
2023-05-11T15:43:00.907Z,99244.44
2023-05-11T15:44:05.413Z,99253.72
2023-05-11T15:45:09.644Z,99254.41
2023-05-11T15:46:13.973Z,99260.66
2023-05-11T15:47:21.255Z,99260.47
2023-05-11T15:48:26.378Z,99254.72
2023-05-11T15:49:31.159Z,99257.91
2023-05-11T15:50:36.965Z,99251.81
2023-05-11T15:51:43.801Z,99254.72
2023-05-11T15:52:47.758Z,99261.78
2023-05-11T15:53:51.861Z,99254.06
2023-05-11T15:54:56.690Z,99252.38
2023-05-11T15:56:00.858Z,99259.81
2023-05-11T15:57:05.623Z,99247.81
2023-05-11T15:58:10.803Z,99257.22
2023-05-11T15:59:15.371Z,99265.50
2023-05-11T16:00:19.653Z,99259.28
2023-05-11T16:01:27.427Z,99263.66
2023-05-11T16:02:31.278Z,99259.09
2023-05-11T16:03:35.544Z,99252.84
2023-05-11T16:04:39.357Z,99254.84
2023-05-11T16:05:44.738Z,99259.91
2023-05-11T16:06:48.592Z,99252.81
2023-05-11T16:07:52.685Z,99257.88
2023-05-11T16:08:56.586Z,99255.69
2023-05-11T16:10:04.159Z,99264.44
2023-05-11T16:11:07.948Z,99256.53
2023-05-11T16:12:12.729Z,99249.81
2023-05-11T16:13:16.807Z,99259.81
2023-05-11T16:14:20.830Z,99261.66
2023-05-11T16:15:25.360Z,99268.09
2023-05-11T16:16:29.839Z,99256.13
2023-05-11T16:17:37.035Z,99262.06
2023-05-11T16:18:41.294Z,99259.84
2023-05-11T16:19:45.716Z,99252.44
2023-05-11T16:20:49.652Z,99268.13
2023-05-11T16:21:53.732Z,99265.94
2023-05-11T16:22:58.339Z,99270.34
2023-05-11T16:24:02.892Z,99267.50
2023-05-11T16:25:07.366Z,99267.81
2023-05-11T16:26:11.360Z,99262.59
2023-05-11T16:27:15.734Z,99255.34
2023-05-11T16:28:20.410Z,99268.88
2023-05-11T16:29:26.296Z,99268.03
2023-05-11T16:30:32.893Z,99269.88
2023-05-11T16:31:37.443Z,99263.78
2023-05-11T16:32:43.880Z,99264.81
2023-05-11T16:33:48.099Z,99255.56
2023-05-11T16:34:53.706Z,99263.78
2023-05-11T16:35:57.802Z,99264.16
2023-05-11T16:37:01.698Z,99260.78
2023-05-11T16:38:06.916Z,99266.00
2023-05-11T16:39:11.175Z,99285.22
2023-05-11T16:40:15.130Z,99265.38
2023-05-11T16:41:19.328Z,99267.72
2023-05-11T16:42:25.580Z,99263.84
2023-05-11T16:43:32.172Z,99270.25
2023-05-11T16:44:36.182Z,99271.09
2023-05-11T16:45:40.122Z,99266.34
2023-05-11T16:46:44.089Z,99272.47
2023-05-11T16:47:48.412Z,99262.84
2023-05-11T16:48:52.558Z,99276.00
2023-05-11T16:49:56.555Z,99276.50
2023-05-11T16:51:00.848Z,99282.25
2023-05-11T16:52:06.023Z,99270.09
2023-05-11T16:53:10.441Z,99274.66
2023-05-11T16:54:15.148Z,99270.94
2023-05-11T16:55:20.123Z,99271.28
2023-05-11T16:56:23.993Z,99276.31
2023-05-11T16:57:27.902Z,99275.13
2023-05-11T16:58:32.308Z,99277.16
2023-05-11T16:59:36.480Z,99275.13
2023-05-11T17:00:41.954Z,99280.88
2023-05-11T17:01:46.477Z,99279.53
2023-05-11T17:02:50.693Z,99286.94
2023-05-11T17:03:55.513Z,99282.56
2023-05-11T17:04:59.809Z,99272.09
2023-05-11T17:06:03.805Z,99282.41
2023-05-11T17:07:10.970Z,99276.44
2023-05-11T17:08:15.979Z,99281.84
2023-05-11T17:09:20.132Z,99278.00
2023-05-11T17:10:25.433Z,99296.69
2023-05-11T17:11:29.998Z,99284.03